createdAt,value
2023-02-12T19:14:43.988Z,7.98
2023-02-12T19:17:11.719Z,8.06
2023-02-12T19:19:39.733Z,8.13
2023-02-12T19:22:07.449Z,8.18
2023-02-12T19:24:46.334Z,8.27
2023-02-12T19:27:14.608Z,8.33
2023-02-12T19:29:43.747Z,8.38
2023-02-12T19:32:11.742Z,8.42
2023-02-12T19:34:39.450Z,8.46
2023-02-12T19:37:07.855Z,8.50
2023-02-12T19:39:35.578Z,8.55
2023-02-12T19:42:03.255Z,8.58
2023-02-12T19:44:30.933Z,8.60
2023-02-12T19:46:59.989Z,8.64
2023-02-12T19:49:29.711Z,8.65
2023-02-12T19:51:57.391Z,8.67
2023-02-12T19:54:25.790Z,8.68
2023-02-12T19:56:55.197Z,8.69
2023-02-12T19:59:24.780Z,8.70
2023-02-12T20:01:52.832Z,8.72
2023-02-12T20:04:23.659Z,8.72
2023-02-12T20:06:52.301Z,8.73
2023-02-12T20:09:20.971Z,8.71
2023-02-12T20:11:48.776Z,8.74
2023-02-12T20:14:16.914Z,8.73
2023-02-12T20:16:46.595Z,8.74
2023-02-12T20:19:17.647Z,8.73
2023-02-12T20:21:48.739Z,8.71
2023-02-12T20:24:16.554Z,8.70
2023-02-12T20:26:44.264Z,8.70
2023-02-12T20:29:11.888Z,8.70
2023-02-12T20:31:39.632Z,8.70
2023-02-12T20:34:11.987Z,8.71
2023-02-12T20:36:41.598Z,8.70
2023-02-12T20:39:13.418Z,8.70
2023-02-12T20:41:42.313Z,8.70
2023-02-12T20:44:12.865Z,8.69
2023-02-12T20:46:42.163Z,8.68
2023-02-12T20:49:12.736Z,8.69
2023-02-12T20:51:40.864Z,8.68
2023-02-12T20:54:09.932Z,8.69
2023-02-12T20:56:38.636Z,8.68
2023-02-12T20:59:08.039Z,8.69
2023-02-12T21:01:37.959Z,8.69
2023-02-12T21:04:08.625Z,8.68
2023-02-12T21:06:39.917Z,8.69
2023-02-12T21:09:09.590Z,8.69
2023-02-12T21:11:40.872Z,8.68
2023-02-12T21:14:21.806Z,8.68
2023-02-12T21:16:51.032Z,8.69
2023-02-12T21:19:20.737Z,8.69
2023-02-12T21:21:48.514Z,8.68
2023-02-12T21:24:18.244Z,8.69
2023-02-12T21:26:47.273Z,8.67
2023-02-12T21:29:15.060Z,8.66
2023-02-12T21:31:44.852Z,8.66
2023-02-12T21:34:16.067Z,8.65
2023-02-12T21:36:46.165Z,8.65
2023-02-12T21:39:16.535Z,8.65
2023-02-12T21:41:44.539Z,8.66
2023-02-12T21:44:15.713Z,8.66
2023-02-12T21:46:43.794Z,8.65
2023-02-12T21:49:12.793Z,8.65
2023-02-12T21:51:42.584Z,8.63
2023-02-12T21:54:12.634Z,8.65
2023-02-12T21:56:42.292Z,8.64
2023-02-12T21:59:10.843Z,8.64
2023-02-12T22:01:43.382Z,8.62
2023-02-12T22:04:11.669Z,8.61
2023-02-12T22:06:40.822Z,8.60
2023-02-12T22:09:10.364Z,8.60
2023-02-12T22:11:39.741Z,8.59
2023-02-12T22:14:08.168Z,8.61
2023-02-12T22:16:37.186Z,8.60
2023-02-12T22:19:06.484Z,8.60
2023-02-12T22:21:37.305Z,8.59
2023-02-12T22:24:06.980Z,8.59
2023-02-12T22:26:35.127Z,8.59
2023-02-12T22:29:04.954Z,8.59
2023-02-12T22:31:34.885Z,8.58
2023-02-12T22:34:04.116Z,8.60
2023-02-12T22:36:36.454Z,8.60
2023-02-12T22:39:05.508Z,8.59
2023-02-12T22:41:33.830Z,8.60
2023-02-12T22:44:04.941Z,8.59
2023-02-12T22:46:33.109Z,8.57
2023-02-12T22:49:01.422Z,8.58
2023-02-12T22:51:31.494Z,8.58
2023-02-12T22:54:01.455Z,8.57
2023-02-12T22:56:29.303Z,8.57
2023-02-12T22:58:58.141Z,8.56
2023-02-12T23:01:26.679Z,8.57
2023-02-12T23:03:55.232Z,8.56
2023-02-12T23:06:24.649Z,8.54
2023-02-12T23:08:53.519Z,8.54
2023-02-12T23:11:24.346Z,8.51
2023-02-12T23:13:52.333Z,8.49
2023-02-12T23:16:20.030Z,8.49
2023-02-12T23:18:47.808Z,8.48
2023-02-12T23:21:15.731Z,8.45
2023-02-12T23:23:43.396Z,8.43
2023-02-12T23:26:11.226Z,8.43
2023-02-12T23:28:40.286Z,8.41
2023-02-12T23:31:08.201Z,8.38
2023-02-12T23:33:36.052Z,8.38
2023-02-12T23:36:03.700Z,8.35
2023-02-12T23:38:31.402Z,8.31
2023-02-12T23:40:59.334Z,8.31
2023-02-12T23:43:27.254Z,8.29
2023-02-12T23:45:56.329Z,8.28
2023-02-12T23:48:24.004Z,8.27
2023-02-12T23:50:51.680Z,8.25
2023-02-12T23:53:19.790Z,8.24
2023-02-12T23:55:50.530Z,8.23
2023-02-12T23:58:18.237Z,8.21
